sensor_id;sensor_type;location;lat;lon;timestamp;P1;durP1;ratioP1;P2;durP2;ratioP2
17259;SDS011;8746;49.230;9.220;2023-08-06T00:00:35;2.90;;;2.70;;
17259;SDS011;8746;49.230;9.220;2023-08-06T00:03:00;3.03;;;2.83;;
17259;SDS011;8746;49.230;9.220;2023-08-06T00:05:25;3.37;;;2.90;;
17259;SDS011;8746;49.230;9.220;2023-08-06T00:07:51;2.60;;;2.40;;
17259;SDS011;8746;49.230;9.220;2023-08-06T00:10:16;2.97;;;2.77;;
17259;SDS011;8746;49.230;9.220;2023-08-06T00:12:43;2.73;;;2.53;;
17259;SDS011;8746;49.230;9.220;2023-08-06T00:15:09;3.47;;;2.63;;
17259;SDS011;8746;49.230;9.220;2023-08-06T00:17:35;3.00;;;2.70;;
17259;SDS011;8746;49.230;9.220;2023-08-06T00:20:01;3.20;;;2.50;;
17259;SDS011;8746;49.230;9.220;2023-08-06T00:22:31;3.13;;;2.70;;
17259;SDS011;8746;49.230;9.220;2023-08-06T00:24:58;2.70;;;2.50;;
17259;SDS011;8746;49.230;9.220;2023-08-06T00:27:23;2.83;;;2.60;;
17259;SDS011;8746;49.230;9.220;2023-08-06T00:29:48;2.47;;;2.27;;
17259;SDS011;8746;49.230;9.220;2023-08-06T00:32:14;5.20;;;2.50;;
17259;SDS011;8746;49.230;9.220;2023-08-06T00:34:39;4.43;;;2.87;;
17259;SDS011;8746;49.230;9.220;2023-08-06T00:37:05;3.00;;;2.80;;
17259;SDS011;8746;49.230;9.220;2023-08-06T00:39:30;5.87;;;2.90;;
17259;SDS011;8746;49.230;9.220;2023-08-06T00:41:55;2.93;;;2.53;;
17259;SDS011;8746;49.230;9.220;2023-08-06T00:44:20;3.13;;;2.83;;
17259;SDS011;8746;49.230;9.220;2023-08-06T00:46:46;3.83;;;2.50;;
17259;SDS011;8746;49.230;9.220;2023-08-06T00:49:11;2.87;;;2.67;;
17259;SDS011;8746;49.230;9.220;2023-08-06T00:51:37;2.97;;;2.77;;
17259;SDS011;8746;49.230;9.220;2023-08-06T00:54:03;2.93;;;2.70;;
17259;SDS011;8746;49.230;9.220;2023-08-06T00:56:28;3.13;;;2.50;;
17259;SDS011;8746;49.230;9.220;2023-08-06T00:58:54;4.23;;;2.53;;
17259;SDS011;8746;49.230;9.220;2023-08-06T01:01:19;2.77;;;2.40;;
17259;SDS011;8746;49.230;9.220;2023-08-06T01:03:45;3.10;;;2.90;;
17259;SDS011;8746;49.230;9.220;2023-08-06T01:06:11;2.67;;;2.47;;
17259;SDS011;8746;49.230;9.220;2023-08-06T01:08:46;3.20;;;2.90;;
17259;SDS011;8746;49.230;9.220;2023-08-06T01:14:17;3.00;;;2.70;;
17259;SDS011;8746;49.230;9.220;2023-08-06T01:16:48;3.33;;;2.60;;
17259;SDS011;8746;49.230;9.220;2023-08-06T01:19:16;3.20;;;2.90;;
17259;SDS011;8746;49.230;9.220;2023-08-06T01:21:42;4.07;;;2.67;;
17259;SDS011;8746;49.230;9.220;2023-08-06T01:24:08;2.90;;;2.70;;
17259;SDS011;8746;49.230;9.220;2023-08-06T01:26:35;3.80;;;2.73;;
17259;SDS011;8746;49.230;9.220;2023-08-06T01:29:10;3.17;;;2.87;;
17259;SDS011;8746;49.230;9.220;2023-08-06T01:31:43;2.90;;;2.70;;
17259;SDS011;8746;49.230;9.220;2023-08-06T01:34:17;3.30;;;2.83;;
17259;SDS011;8746;49.230;9.220;2023-08-06T01:36:45;2.93;;;2.73;;
17259;SDS011;8746;49.230;9.220;2023-08-06T01:39:11;4.33;;;3.10;;
17259;SDS011;8746;49.230;9.220;2023-08-06T01:41:36;3.17;;;2.83;;
17259;SDS011;8746;49.230;9.220;2023-08-06T01:44:02;3.80;;;3.30;;
17259;SDS011;8746;49.230;9.220;2023-08-06T01:46:27;3.23;;;3.03;;
17259;SDS011;8746;49.230;9.220;2023-08-06T01:48:52;3.77;;;2.83;;
17259;SDS011;8746;49.230;9.220;2023-08-06T01:51:17;4.07;;;3.00;;
17259;SDS011;8746;49.230;9.220;2023-08-06T01:53:43;4.63;;;3.53;;
17259;SDS011;8746;49.230;9.220;2023-08-06T01:56:08;3.10;;;2.90;;
17259;SDS011;8746;49.230;9.220;2023-08-06T01:58:34;3.00;;;2.80;;
17259;SDS011;8746;49.230;9.220;2023-08-06T02:01:00;3.90;;;2.83;;
17259;SDS011;8746;49.230;9.220;2023-08-06T02:03:26;4.40;;;3.00;;
17259;SDS011;8746;49.230;9.220;2023-08-06T02:05:53;4.00;;;3.03;;
17259;SDS011;8746;49.230;9.220;2023-08-06T02:08:18;5.97;;;3.30;;
17259;SDS011;8746;49.230;9.220;2023-08-06T02:10:44;2.90;;;2.70;;
17259;SDS011;8746;49.230;9.220;2023-08-06T02:13:10;3.50;;;3.20;;
17259;SDS011;8746;49.230;9.220;2023-08-06T02:15:35;5.33;;;3.30;;
17259;SDS011;8746;49.230;9.220;2023-08-06T02:18:00;3.27;;;3.03;;
17259;SDS011;8746;49.230;9.220;2023-08-06T02:20:26;3.20;;;3.00;;
17259;SDS011;8746;49.230;9.220;2023-08-06T02:22:51;3.33;;;3.03;;
17259;SDS011;8746;49.230;9.220;2023-08-06T02:25:16;3.60;;;3.30;;
17259;SDS011;8746;49.230;9.220;2023-08-06T02:27:42;3.07;;;2.77;;
17259;SDS011;8746;49.230;9.220;2023-08-06T02:30:07;3.60;;;3.10;;
17259;SDS011;8746;49.230;9.220;2023-08-06T02:32:33;4.50;;;3.40;;
17259;SDS011;8746;49.230;9.220;2023-08-06T02:35:00;3.30;;;3.00;;
17259;SDS011;8746;49.230;9.220;2023-08-06T02:37:27;3.63;;;3.33;;
17259;SDS011;8746;49.230;9.220;2023-08-06T02:39:52;3.93;;;3.20;;
17259;SDS011;8746;49.230;9.220;2023-08-06T02:42:17;4.17;;;3.87;;
17259;SDS011;8746;49.230;9.220;2023-08-06T02:44:43;4.07;;;3.73;;
17259;SDS011;8746;49.230;9.220;2023-08-06T02:47:08;3.73;;;3.43;;
17259;SDS011;8746;49.230;9.220;2023-08-06T02:49:33;6.03;;;3.97;;
17259;SDS011;8746;49.230;9.220;2023-08-06T02:51:58;4.07;;;3.67;;
17259;SDS011;8746;49.230;9.220;2023-08-06T02:54:24;4.07;;;3.77;;
17259;SDS011;8746;49.230;9.220;2023-08-06T02:56:49;4.10;;;3.80;;
17259;SDS011;8746;49.230;9.220;2023-08-06T02:59:15;4.03;;;3.63;;
17259;SDS011;8746;49.230;9.220;2023-08-06T03:01:40;5.10;;;4.37;;
17259;SDS011;8746;49.230;9.220;2023-08-06T03:04:05;4.20;;;3.90;;
17259;SDS011;8746;49.230;9.220;2023-08-06T03:06:31;3.93;;;3.63;;
17259;SDS011;8746;49.230;9.220;2023-08-06T03:08:56;4.90;;;3.87;;
17259;SDS011;8746;49.230;9.220;2023-08-06T03:11:22;4.10;;;3.70;;
17259;SDS011;8746;49.230;9.220;2023-08-06T03:13:47;4.40;;;4.00;;
17259;SDS011;8746;49.230;9.220;2023-08-06T03:16:13;4.23;;;3.50;;
17259;SDS011;8746;49.230;9.220;2023-08-06T03:18:38;6.40;;;3.80;;
17259;SDS011;8746;49.230;9.220;2023-08-06T03:21:04;4.67;;;3.90;;
17259;SDS011;8746;49.230;9.220;2023-08-06T03:23:29;4.13;;;3.30;;
17259;SDS011;8746;49.230;9.220;2023-08-06T03:25:55;4.03;;;3.73;;
17259;SDS011;8746;49.230;9.220;2023-08-06T03:28:20;4.13;;;3.83;;
17259;SDS011;8746;49.230;9.220;2023-08-06T03:30:47;3.90;;;3.60;;
17259;SDS011;8746;49.230;9.220;2023-08-06T03:33:12;4.07;;;3.70;;
17259;SDS011;8746;49.230;9.220;2023-08-06T03:35:37;4.20;;;3.80;;
17259;SDS011;8746;49.230;9.220;2023-08-06T03:38:03;4.63;;;3.40;;
17259;SDS011;8746;49.230;9.220;2023-08-06T03:40:28;5.43;;;3.97;;
17259;SDS011;8746;49.230;9.220;2023-08-06T03:42:53;3.50;;;3.17;;
17259;SDS011;8746;49.230;9.220;2023-08-06T03:45:19;3.70;;;3.40;;
17259;SDS011;8746;49.230;9.220;2023-08-06T03:47:44;4.10;;;3.70;;
17259;SDS011;8746;49.230;9.220;2023-08-06T03:50:10;4.80;;;3.43;;
17259;SDS011;8746;49.230;9.220;2023-08-06T03:52:35;6.17;;;3.43;;
17259;SDS011;8746;49.230;9.220;2023-08-06T03:55:00;3.80;;;3.40;;
17259;SDS011;8746;49.230;9.220;2023-08-06T03:57:26;4.67;;;3.13;;
17259;SDS011;8746;49.230;9.220;2023-08-06T03:59:51;3.67;;;3.37;;
17259;SDS011;8746;49.230;9.220;2023-08-06T04:02:18;4.00;;;3.60;;
17259;SDS011;8746;49.230;9.220;2023-08-06T04:04:43;3.50;;;3.20;;
17259;SDS011;8746;49.230;9.220;2023-08-06T04:07:09;4.97;;;3.90;;
17259;SDS011;8746;49.230;9.220;2023-08-06T04:09:35;3.00;;;2.77;;
17259;SDS011;8746;49.230;9.220;2023-08-06T04:12:17;2.70;;;2.50;;
17259;SDS011;8746;49.230;9.220;2023-08-06T04:14:42;3.77;;;2.80;;
17259;SDS011;8746;49.230;9.220;2023-08-06T04:17:07;3.13;;;2.47;;
17259;SDS011;8746;49.230;9.220;2023-08-06T04:19:32;2.60;;;2.40;;
17259;SDS011;8746;49.230;9.220;2023-08-06T04:21:58;4.13;;;2.13;;
17259;SDS011;8746;49.230;9.220;2023-08-06T04:24:23;2.43;;;2.20;;
17259;SDS011;8746;49.230;9.220;2023-08-06T04:26:48;2.43;;;1.70;;
17259;SDS011;8746;49.230;9.220;2023-08-06T04:29:13;2.90;;;1.70;;
17259;SDS011;8746;49.230;9.220;2023-08-06T04:31:39;2.47;;;1.60;;
17259;SDS011;8746;49.230;9.220;2023-08-06T04:34:04;2.90;;;2.17;;
17259;SDS011;8746;49.230;9.220;2023-08-06T04:36:30;3.23;;;1.60;;
17259;SDS011;8746;49.230;9.220;2023-08-06T04:38:56;2.07;;;1.87;;
17259;SDS011;8746;49.230;9.220;2023-08-06T04:41:21;3.73;;;1.93;;
17259;SDS011;8746;49.230;9.220;2023-08-06T04:43:46;2.13;;;1.53;;
17259;SDS011;8746;49.230;9.220;2023-08-06T04:46:12;2.27;;;1.40;;
17259;SDS011;8746;49.230;9.220;2023-08-06T04:48:37;4.63;;;1.40;;
17259;SDS011;8746;49.230;9.220;2023-08-06T04:51:02;1.50;;;1.40;;
17259;SDS011;8746;49.230;9.220;2023-08-06T04:53:28;1.50;;;1.33;;
17259;SDS011;8746;49.230;9.220;2023-08-06T04:55:53;1.67;;;1.33;;
17259;SDS011;8746;49.230;9.220;2023-08-06T04:58:18;1.97;;;1.40;;
17259;SDS011;8746;49.230;9.220;2023-08-06T05:00:44;4.33;;;1.30;;
17259;SDS011;8746;49.230;9.220;2023-08-06T05:03:09;1.50;;;1.30;;
17259;SDS011;8746;49.230;9.220;2023-08-06T05:05:34;6.13;;;1.60;;
17259;SDS011;8746;49.230;9.220;2023-08-06T05:08:00;2.87;;;1.40;;
17259;SDS011;8746;49.230;9.220;2023-08-06T05:10:25;2.17;;;1.40;;
17259;SDS011;8746;49.230;9.220;2023-08-06T05:12:51;1.93;;;1.23;;
17259;SDS011;8746;49.230;9.220;2023-08-06T05:15:16;3.80;;;1.50;;
17259;SDS011;8746;49.230;9.220;2023-08-06T05:17:42;2.30;;;1.10;;
17259;SDS011;8746;49.230;9.220;2023-08-06T05:20:07;1.77;;;1.13;;
17259;SDS011;8746;49.230;9.220;2023-08-06T05:22:33;3.50;;;1.43;;
17259;SDS011;8746;49.230;9.220;2023-08-06T05:24:58;1.20;;;1.10;;
17259;SDS011;8746;49.230;9.220;2023-08-06T05:27:24;3.90;;;1.30;;
17259;SDS011;8746;49.230;9.220;2023-08-06T05:29:49;3.33;;;1.60;;
17259;SDS011;8746;49.230;9.220;2023-08-06T05:32:14;2.47;;;1.43;;
17259;SDS011;8746;49.230;9.220;2023-08-06T05:34:40;1.60;;;1.07;;
17259;SDS011;8746;49.230;9.220;2023-08-06T05:37:06;1.63;;;1.30;;
17259;SDS011;8746;49.230;9.220;2023-08-06T05:39:32;1.50;;;1.30;;
17259;SDS011;8746;49.230;9.220;2023-08-06T05:41:57;3.03;;;1.43;;
17259;SDS011;8746;49.230;9.220;2023-08-06T05:44:25;3.00;;;1.23;;
17259;SDS011;8746;49.230;9.220;2023-08-06T05:46:50;2.10;;;1.30;;
17259;SDS011;8746;49.230;9.220;2023-08-06T05:49:16;1.93;;;1.23;;
17259;SDS011;8746;49.230;9.220;2023-08-06T05:51:41;2.93;;;1.20;;
17259;SDS011;8746;49.230;9.220;2023-08-06T05:54:07;2.60;;;1.07;;
17259;SDS011;8746;49.230;9.220;2023-08-06T05:56:32;2.90;;;1.40;;
17259;SDS011;8746;49.230;9.220;2023-08-06T05:58:57;1.53;;;1.10;;
17259;SDS011;8746;49.230;9.220;2023-08-06T06:01:23;2.30;;;1.23;;
17259;SDS011;8746;49.230;9.220;2023-08-06T06:03:48;3.47;;;1.40;;
17259;SDS011;8746;49.230;9.220;2023-08-06T06:06:13;2.57;;;1.20;;
17259;SDS011;8746;49.230;9.220;2023-08-06T06:08:40;4.17;;;1.40;;
17259;SDS011;8746;49.230;9.220;2023-08-06T06:11:05;5.10;;;1.10;;
17259;SDS011;8746;49.230;9.220;2023-08-06T06:13:31;1.93;;;1.10;;
17259;SDS011;8746;49.230;9.220;2023-08-06T06:15:56;4.10;;;1.47;;
17259;SDS011;8746;49.230;9.220;2023-08-06T06:18:22;3.30;;;1.40;;
17259;SDS011;8746;49.230;9.220;2023-08-06T06:20:47;1.67;;;1.00;;
17259;SDS011;8746;49.230;9.220;2023-08-06T06:23:13;1.43;;;1.30;;
17259;SDS011;8746;49.230;9.220;2023-08-06T06:25:57;3.40;;;1.20;;
17259;SDS011;8746;49.230;9.220;2023-08-06T06:28:22;2.87;;;1.07;;
17259;SDS011;8746;49.230;9.220;2023-08-06T06:30:47;4.30;;;1.03;;
17259;SDS011;8746;49.230;9.220;2023-08-06T06:33:13;3.10;;;1.27;;
17259;SDS011;8746;49.230;9.220;2023-08-06T06:35:38;1.33;;;0.90;;
17259;SDS011;8746;49.230;9.220;2023-08-06T06:38:03;0.97;;;0.87;;
17259;SDS011;8746;49.230;9.220;2023-08-06T06:40:29;1.07;;;0.90;;
17259;SDS011;8746;49.230;9.220;2023-08-06T06:42:54;2.30;;;1.03;;
17259;SDS011;8746;49.230;9.220;2023-08-06T06:45:20;1.00;;;0.80;;
17259;SDS011;8746;49.230;9.220;2023-08-06T06:47:45;1.27;;;0.90;;
17259;SDS011;8746;49.230;9.220;2023-08-06T06:50:10;1.77;;;0.73;;
17259;SDS011;8746;49.230;9.220;2023-08-06T06:52:36;1.23;;;0.70;;
17259;SDS011;8746;49.230;9.220;2023-08-06T06:55:02;1.13;;;0.90;;
17259;SDS011;8746;49.230;9.220;2023-08-06T06:57:28;0.67;;;0.60;;
17259;SDS011;8746;49.230;9.220;2023-08-06T06:59:54;1.43;;;0.53;;
17259;SDS011;8746;49.230;9.220;2023-08-06T07:02:19;1.83;;;0.87;;
17259;SDS011;8746;49.230;9.220;2023-08-06T07:04:45;0.90;;;0.70;;
17259;SDS011;8746;49.230;9.220;2023-08-06T07:07:10;0.60;;;0.60;;
17259;SDS011;8746;49.230;9.220;2023-08-06T07:09:35;1.73;;;0.67;;
17259;SDS011;8746;49.230;9.220;2023-08-06T07:12:01;0.50;;;0.50;;
17259;SDS011;8746;49.230;9.220;2023-08-06T07:14:26;1.13;;;0.70;;
17259;SDS011;8746;49.230;9.220;2023-08-06T07:16:53;0.60;;;0.60;;
17259;SDS011;8746;49.230;9.220;2023-08-06T07:19:18;0.50;;;0.50;;
17259;SDS011;8746;49.230;9.220;2023-08-06T07:21:43;3.23;;;0.80;;
17259;SDS011;8746;49.230;9.220;2023-08-06T07:24:09;0.70;;;0.70;;
17259;SDS011;8746;49.230;9.220;2023-08-06T07:26:34;1.63;;;0.60;;
17259;SDS011;8746;49.230;9.220;2023-08-06T07:29:00;1.23;;;0.77;;
17259;SDS011;8746;49.230;9.220;2023-08-06T07:31:25;1.00;;;0.70;;
17259;SDS011;8746;49.230;9.220;2023-08-06T07:33:51;0.83;;;0.53;;
17259;SDS011;8746;49.230;9.220;2023-08-06T07:36:16;0.87;;;0.50;;
17259;SDS011;8746;49.230;9.220;2023-08-06T07:38:42;0.93;;;0.43;;
17259;SDS011;8746;49.230;9.220;2023-08-06T07:41:07;1.57;;;0.43;;
17259;SDS011;8746;49.230;9.220;2023-08-06T07:43:33;0.53;;;0.53;;
17259;SDS011;8746;49.230;9.220;2023-08-06T07:46:00;0.57;;;0.37;;
17259;SDS011;8746;49.230;9.220;2023-08-06T07:48:26;0.40;;;0.40;;
17259;SDS011;8746;49.230;9.220;2023-08-06T07:50:53;0.37;;;0.37;;
17259;SDS011;8746;49.230;9.220;2023-08-06T07:53:20;1.10;;;0.40;;
17259;SDS011;8746;49.230;9.220;2023-08-06T07:55:48;0.87;;;0.50;;
17259;SDS011;8746;49.230;9.220;2023-08-06T07:58:17;1.53;;;0.40;;
17259;SDS011;8746;49.230;9.220;2023-08-06T08:00:43;0.43;;;0.43;;
17259;SDS011;8746;49.230;9.220;2023-08-06T08:03:10;0.63;;;0.40;;
17259;SDS011;8746;49.230;9.220;2023-08-06T08:05:39;0.30;;;0.30;;
17259;SDS011;8746;49.230;9.220;2023-08-06T08:08:05;1.03;;;0.33;;
17259;SDS011;8746;49.230;9.220;2023-08-06T08:10:31;0.30;;;0.30;;
17259;SDS011;8746;49.230;9.220;2023-08-06T08:12:57;0.33;;;0.33;;
17259;SDS011;8746;49.230;9.220;2023-08-06T08:15:24;0.80;;;0.50;;
17259;SDS011;8746;49.230;9.220;2023-08-06T08:17:51;0.50;;;0.50;;
17259;SDS011;8746;49.230;9.220;2023-08-06T08:20:16;0.90;;;0.50;;
17259;SDS011;8746;49.230;9.220;2023-08-06T08:22:42;0.77;;;0.40;;
17259;SDS011;8746;49.230;9.220;2023-08-06T08:25:07;0.43;;;0.40;;
17259;SDS011;8746;49.230;9.220;2023-08-06T08:27:33;1.70;;;0.40;;
17259;SDS011;8746;49.230;9.220;2023-08-06T08:29:58;0.50;;;0.40;;
17259;SDS011;8746;49.230;9.220;2023-08-06T08:32:23;0.40;;;0.40;;
17259;SDS011;8746;49.230;9.220;2023-08-06T08:34:49;0.53;;;0.40;;
17259;SDS011;8746;49.230;9.220;2023-08-06T08:37:14;1.77;;;0.60;;
17259;SDS011;8746;49.230;9.220;2023-08-06T08:39:39;1.47;;;0.40;;
17259;SDS011;8746;49.230;9.220;2023-08-06T08:42:05;2.30;;;0.43;;
17259;SDS011;8746;49.230;9.220;2023-08-06T08:44:32;0.37;;;0.37;;
17259;SDS011;8746;49.230;9.220;2023-08-06T08:46:58;0.93;;;0.50;;
17259;SDS011;8746;49.230;9.220;2023-08-06T08:49:24;0.40;;;0.40;;
17259;SDS011;8746;49.230;9.220;2023-08-06T08:51:52;0.57;;;0.50;;
17259;SDS011;8746;49.230;9.220;2023-08-06T08:54:18;0.50;;;0.50;;
17259;SDS011;8746;49.230;9.220;2023-08-06T08:56:45;0.23;;;0.23;;
17259;SDS011;8746;49.230;9.220;2023-08-06T08:59:11;0.30;;;0.30;;
17259;SDS011;8746;49.230;9.220;2023-08-06T09:01:36;0.60;;;0.40;;
17259;SDS011;8746;49.230;9.220;2023-08-06T09:04:04;0.40;;;0.40;;
17259;SDS011;8746;49.230;9.220;2023-08-06T09:06:30;0.63;;;0.63;;
17259;SDS011;8746;49.230;9.220;2023-08-06T09:09:08;0.37;;;0.37;;
17259;SDS011;8746;49.230;9.220;2023-08-06T09:11:43;0.30;;;0.30;;
17259;SDS011;8746;49.230;9.220;2023-08-06T09:14:10;0.30;;;0.30;;
17259;SDS011;8746;49.230;9.220;2023-08-06T09:16:36;0.27;;;0.27;;
17259;SDS011;8746;49.230;9.220;2023-08-06T09:19:08;0.30;;;0.30;;
17259;SDS011;8746;49.230;9.220;2023-08-06T09:21:43;0.53;;;0.20;;
17259;SDS011;8746;49.230;9.220;2023-08-06T09:24:09;0.57;;;0.27;;
17259;SDS011;8746;49.230;9.220;2023-08-06T09:26:41;0.37;;;0.37;;
17259;SDS011;8746;49.230;9.220;2023-08-06T09:29:07;0.30;;;0.27;;
17259;SDS011;8746;49.230;9.220;2023-08-06T09:31:40;0.43;;;0.17;;
17259;SDS011;8746;49.230;9.220;2023-08-06T09:34:19;0.67;;;0.30;;
17259;SDS011;8746;49.230;9.220;2023-08-06T09:36:47;0.20;;;0.20;;
17259;SDS011;8746;49.230;9.220;2023-08-06T09:39:16;0.63;;;0.20;;
17259;SDS011;8746;49.230;9.220;2023-08-06T09:41:42;0.53;;;0.20;;
17259;SDS011;8746;49.230;9.220;2023-08-06T09:44:18;0.60;;;0.37;;
17259;SDS011;8746;49.230;9.220;2023-08-06T09:49:20;0.30;;;0.30;;
17259;SDS011;8746;49.230;9.220;2023-08-06T09:51:51;0.30;;;0.30;;
17259;SDS011;8746;49.230;9.220;2023-08-06T09:54:20;0.30;;;0.30;;
17259;SDS011;8746;49.230;9.220;2023-08-06T09:56:47;0.40;;;0.40;;
17259;SDS011;8746;49.230;9.220;2023-08-06T09:59:13;0.70;;;0.50;;
17259;SDS011;8746;49.230;9.220;2023-08-06T10:01:38;0.40;;;0.40;;
17259;SDS011;8746;49.230;9.220;2023-08-06T10:04:05;0.53;;;0.50;;
17259;SDS011;8746;49.230;9.220;2023-08-06T10:06:34;1.47;;;0.57;;
17259;SDS011;8746;49.230;9.220;2023-08-06T10:09:06;0.40;;;0.40;;
17259;SDS011;8746;49.230;9.220;2023-08-06T10:11:32;0.50;;;0.50;;
17259;SDS011;8746;49.230;9.220;2023-08-06T10:14:00;0.60;;;0.60;;
17259;SDS011;8746;49.230;9.220;2023-08-06T10:16:31;0.37;;;0.37;;
17259;SDS011;8746;49.230;9.220;2023-08-06T10:18:58;0.50;;;0.50;;
17259;SDS011;8746;49.230;9.220;2023-08-06T10:21:24;0.40;;;0.40;;
17259;SDS011;8746;49.230;9.220;2023-08-06T10:23:55;0.30;;;0.30;;
17259;SDS011;8746;49.230;9.220;2023-08-06T10:26:28;0.27;;;0.27;;
17259;SDS011;8746;49.230;9.220;2023-08-06T10:28:54;0.83;;;0.20;;
17259;SDS011;8746;49.230;9.220;2023-08-06T10:31:19;0.20;;;0.20;;
17259;SDS011;8746;49.230;9.220;2023-08-06T10:33:46;0.20;;;0.20;;
17259;SDS011;8746;49.230;9.220;2023-08-06T10:36:13;0.37;;;0.30;;
17259;SDS011;8746;49.230;9.220;2023-08-06T10:38:46;0.40;;;0.40;;
17259;SDS011;8746;49.230;9.220;2023-08-06T10:41:23;0.27;;;0.27;;
17259;SDS011;8746;49.230;9.220;2023-08-06T10:44:06;0.30;;;0.30;;
17259;SDS011;8746;49.230;9.220;2023-08-06T10:46:33;1.80;;;0.40;;
17259;SDS011;8746;49.230;9.220;2023-08-06T10:48:58;0.40;;;0.40;;
17259;SDS011;8746;49.230;9.220;2023-08-06T10:51:24;0.40;;;0.40;;
17259;SDS011;8746;49.230;9.220;2023-08-06T10:53:50;14.37;;;8.40;;
17259;SDS011;8746;49.230;9.220;2023-08-06T10:58:42;0.70;;;0.70;;
17259;SDS011;8746;49.230;9.220;2023-08-06T11:01:09;0.73;;;0.73;;
17259;SDS011;8746;49.230;9.220;2023-08-06T11:03:35;0.53;;;0.53;;
17259;SDS011;8746;49.230;9.220;2023-08-06T11:06:01;0.50;;;0.50;;
17259;SDS011;8746;49.230;9.220;2023-08-06T11:08:32;2.10;;;0.60;;
17259;SDS011;8746;49.230;9.220;2023-08-06T11:11:11;0.50;;;0.50;;
17259;SDS011;8746;49.230;9.220;2023-08-06T11:13:48;0.60;;;0.60;;
17259;SDS011;8746;49.230;9.220;2023-08-06T11:16:14;0.70;;;0.70;;
17259;SDS011;8746;49.230;9.220;2023-08-06T11:18:41;0.63;;;0.60;;
17259;SDS011;8746;49.230;9.220;2023-08-06T11:21:09;0.60;;;0.60;;
17259;SDS011;8746;49.230;9.220;2023-08-06T11:23:34;1.23;;;0.60;;
17259;SDS011;8746;49.230;9.220;2023-08-06T11:26:01;0.60;;;0.60;;
17259;SDS011;8746;49.230;9.220;2023-08-06T11:28:26;0.60;;;0.60;;
17259;SDS011;8746;49.230;9.220;2023-08-06T11:30:52;0.77;;;0.63;;
17259;SDS011;8746;49.230;9.220;2023-08-06T11:33:26;0.70;;;0.70;;
17259;SDS011;8746;49.230;9.220;2023-08-06T11:35:53;0.60;;;0.60;;
17259;SDS011;8746;49.230;9.220;2023-08-06T11:38:20;0.87;;;0.70;;
17259;SDS011;8746;49.230;9.220;2023-08-06T11:40:45;0.77;;;0.77;;
17259;SDS011;8746;49.230;9.220;2023-08-06T11:43:12;0.90;;;0.90;;
17259;SDS011;8746;49.230;9.220;2023-08-06T11:45:38;0.80;;;0.80;;
17259;SDS011;8746;49.230;9.220;2023-08-06T11:48:04;0.90;;;0.90;;
17259;SDS011;8746;49.230;9.220;2023-08-06T11:50:30;1.17;;;0.93;;
17259;SDS011;8746;49.230;9.220;2023-08-06T11:52:59;1.00;;;1.00;;
17259;SDS011;8746;49.230;9.220;2023-08-06T11:55:26;1.10;;;1.00;;
17259;SDS011;8746;49.230;9.220;2023-08-06T11:57:53;1.10;;;1.10;;
17259;SDS011;8746;49.230;9.220;2023-08-06T12:00:19;1.63;;;1.13;;
17259;SDS011;8746;49.230;9.220;2023-08-06T12:02:49;0.97;;;0.97;;
17259;SDS011;8746;49.230;9.220;2023-08-06T12:05:19;1.13;;;0.90;;
17259;SDS011;8746;49.230;9.220;2023-08-06T12:07:49;1.20;;;1.10;;
17259;SDS011;8746;49.230;9.220;2023-08-06T12:10:16;1.50;;;1.40;;
17259;SDS011;8746;49.230;9.220;2023-08-06T12:12:42;1.20;;;1.20;;
17259;SDS011;8746;49.230;9.220;2023-08-06T12:15:07;1.67;;;1.30;;
17259;SDS011;8746;49.230;9.220;2023-08-06T12:17:34;1.20;;;1.20;;
17259;SDS011;8746;49.230;9.220;2023-08-06T12:20:01;1.73;;;1.30;;
17259;SDS011;8746;49.230;9.220;2023-08-06T12:22:29;2.47;;;1.30;;
17259;SDS011;8746;49.230;9.220;2023-08-06T12:24:57;1.30;;;1.30;;
17259;SDS011;8746;49.230;9.220;2023-08-06T12:27:22;1.60;;;1.50;;
17259;SDS011;8746;49.230;9.220;2023-08-06T12:29:48;2.07;;;1.33;;
17259;SDS011;8746;49.230;9.220;2023-08-06T12:32:13;2.80;;;1.63;;
17259;SDS011;8746;49.230;9.220;2023-08-06T12:34:40;1.93;;;1.60;;
17259;SDS011;8746;49.230;9.220;2023-08-06T12:37:06;2.60;;;1.80;;
17259;SDS011;8746;49.230;9.220;2023-08-06T12:39:35;1.77;;;1.67;;
17259;SDS011;8746;49.230;9.220;2023-08-06T12:42:02;1.90;;;1.50;;
17259;SDS011;8746;49.230;9.220;2023-08-06T12:44:28;2.10;;;1.90;;
17259;SDS011;8746;49.230;9.220;2023-08-06T12:46:54;2.27;;;2.07;;
17259;SDS011;8746;49.230;9.220;2023-08-06T12:49:19;4.70;;;1.90;;
17259;SDS011;8746;49.230;9.220;2023-08-06T12:51:50;2.27;;;1.87;;
17259;SDS011;8746;49.230;9.220;2023-08-06T12:54:16;2.63;;;2.00;;
17259;SDS011;8746;49.230;9.220;2023-08-06T12:56:42;2.40;;;2.10;;
17259;SDS011;8746;49.230;9.220;2023-08-06T12:59:08;4.13;;;2.03;;
17259;SDS011;8746;49.230;9.220;2023-08-06T13:01:33;2.17;;;1.90;;
17259;SDS011;8746;49.230;9.220;2023-08-06T13:03:59;2.00;;;1.80;;
17259;SDS011;8746;49.230;9.220;2023-08-06T13:06:25;1.90;;;1.80;;
17259;SDS011;8746;49.230;9.220;2023-08-06T13:08:50;2.50;;;2.00;;
17259;SDS011;8746;49.230;9.220;2023-08-06T13:11:15;3.77;;;2.23;;
17259;SDS011;8746;49.230;9.220;2023-08-06T13:13:41;2.23;;;2.03;;
17259;SDS011;8746;49.230;9.220;2023-08-06T13:16:06;2.77;;;1.80;;
17259;SDS011;8746;49.230;9.220;2023-08-06T13:18:31;2.10;;;1.60;;
17259;SDS011;8746;49.230;9.220;2023-08-06T13:20:57;4.80;;;1.93;;
17259;SDS011;8746;49.230;9.220;2023-08-06T13:23:23;2.70;;;2.03;;
17259;SDS011;8746;49.230;9.220;2023-08-06T13:25:48;2.97;;;2.00;;
17259;SDS011;8746;49.230;9.220;2023-08-06T13:28:13;2.97;;;2.17;;
17259;SDS011;8746;49.230;9.220;2023-08-06T13:30:39;2.77;;;2.20;;
17259;SDS011;8746;49.230;9.220;2023-08-06T13:33:07;3.47;;;2.43;;
17259;SDS011;8746;49.230;9.220;2023-08-06T13:35:33;2.10;;;1.90;;
17259;SDS011;8746;49.230;9.220;2023-08-06T13:37:58;3.80;;;2.40;;
17259;SDS011;8746;49.230;9.220;2023-08-06T13:40:24;2.97;;;2.10;;
17259;SDS011;8746;49.230;9.220;2023-08-06T13:42:49;3.53;;;2.23;;
17259;SDS011;8746;49.230;9.220;2023-08-06T13:45:15;2.63;;;2.17;;
17259;SDS011;8746;49.230;9.220;2023-08-06T13:47:40;3.23;;;2.10;;
17259;SDS011;8746;49.230;9.220;2023-08-06T13:50:06;2.27;;;1.70;;
17259;SDS011;8746;49.230;9.220;2023-08-06T13:52:31;2.37;;;1.90;;
17259;SDS011;8746;49.230;9.220;2023-08-06T13:54:57;2.17;;;1.80;;
17259;SDS011;8746;49.230;9.220;2023-08-06T13:57:22;3.40;;;1.70;;
17259;SDS011;8746;49.230;9.220;2023-08-06T13:59:47;3.17;;;1.70;;
17259;SDS011;8746;49.230;9.220;2023-08-06T14:02:13;2.13;;;1.57;;
17259;SDS011;8746;49.230;9.220;2023-08-06T14:04:38;1.40;;;1.30;;
17259;SDS011;8746;49.230;9.220;2023-08-06T14:07:05;2.07;;;1.40;;
17259;SDS011;8746;49.230;9.220;2023-08-06T14:09:30;1.13;;;1.10;;
17259;SDS011;8746;49.230;9.220;2023-08-06T14:11:55;2.23;;;1.20;;
17259;SDS011;8746;49.230;9.220;2023-08-06T14:14:21;1.20;;;1.10;;
17259;SDS011;8746;49.230;9.220;2023-08-06T14:16:52;3.53;;;0.97;;
17259;SDS011;8746;49.230;9.220;2023-08-06T14:19:19;1.00;;;0.90;;
17259;SDS011;8746;49.230;9.220;2023-08-06T14:21:44;1.10;;;1.00;;
17259;SDS011;8746;49.230;9.220;2023-08-06T14:24:09;0.97;;;0.90;;
17259;SDS011;8746;49.230;9.220;2023-08-06T14:26:35;1.10;;;1.03;;
17259;SDS011;8746;49.230;9.220;2023-08-06T14:29:00;0.93;;;0.80;;
17259;SDS011;8746;49.230;9.220;2023-08-06T14:31:26;1.10;;;1.00;;
17259;SDS011;8746;49.230;9.220;2023-08-06T14:33:52;1.00;;;1.00;;
17259;SDS011;8746;49.230;9.220;2023-08-06T14:36:17;1.73;;;0.90;;
17259;SDS011;8746;49.230;9.220;2023-08-06T14:38:43;1.43;;;0.90;;
17259;SDS011;8746;49.230;9.220;2023-08-06T14:41:08;1.80;;;1.00;;
17259;SDS011;8746;49.230;9.220;2023-08-06T14:43:34;1.60;;;0.93;;
17259;SDS011;8746;49.230;9.220;2023-08-06T14:45:59;0.80;;;0.80;;
17259;SDS011;8746;49.230;9.220;2023-08-06T14:48:24;1.53;;;0.90;;
17259;SDS011;8746;49.230;9.220;2023-08-06T14:50:50;0.90;;;0.70;;
17259;SDS011;8746;49.230;9.220;2023-08-06T14:53:15;0.90;;;0.90;;
17259;SDS011;8746;49.230;9.220;2023-08-06T14:55:41;1.13;;;1.00;;
17259;SDS011;8746;49.230;9.220;2023-08-06T14:58:07;0.90;;;0.90;;
17259;SDS011;8746;49.230;9.220;2023-08-06T15:00:32;0.80;;;0.80;;
17259;SDS011;8746;49.230;9.220;2023-08-06T15:02:57;0.83;;;0.83;;